Tropical Cyclones
[Index]
Main Index Home Page Stock Weather Photos Extreme Storms Discussion Storm News and Storm Chasing Reports Tropical Cyclones / Hurricanes / Typhoons Weather Data and Links Wild Fires / Bushfires Weather Observation Techniques Weather Picture Catalogue Tornado Pictures and Reports Stock Video Footage and DVDs for sale
Season 1990-1991 Tropical Cyclone LISA Track Map
Season 1990-1991 Summaries: [BoM-AU] [JTWC-AU] [JTWC-SIO] [JTWC-SPAC] [JTWC-SH]
<<- Previous TC | BoM 1990-1991 Season | Next TC ->>

click for intensity scale information  Lat/long Grid: Show Hide

 Date Labels: Show Hide

Bureau of Meteorology Tropical Cyclone Data

Name: LISA
Number: 742 / 199091_10

07 May 1991 00:00 UTC to 12 May 1991 18:00 UTC

    date/time    lat    long    hPa   cat  kts
1991-05-07 00    6.0   155.0   1004         31          
1991-05-07 06    7.0   155.0   1000         31          
1991-05-07 12    8.0   155.2    998         35          
1991-05-07 18    8.9   155.3    996         37          
1991-05-08 00    9.8   155.0    995    1    41          
1991-05-08 06   10.4   154.4    995    1    35          
1991-05-08 12   11.0   154.0    990    1    45          
1991-05-08 18   12.0   153.9    990    1    45          
1991-05-09 00   13.0   154.1    990    1    45          
1991-05-09 06   13.4   154.3    984    2    51          
1991-05-09 12   13.8   154.5    983    2    51          
1991-05-09 18   14.4   155.0    982    2    51          
1991-05-10 00   15.2   155.7    978    2    60          
1991-05-10 06   15.6   156.1    975    2    60          
1991-05-10 12   16.0   157.0    975    2    60          
1991-05-10 18   16.2   158.2    975    2    60          
1991-05-11 00   16.9   159.1    975    2    60          
1991-05-11 06   17.5   160.0    975    2    60          
1991-05-11 12   17.9   161.1    980    2    60          
1991-05-11 18   18.0   162.4    990    1    60          
1991-05-12 00   18.2   163.8    992    1    51          
1991-05-12 06   18.6   165.2    994    1    41          
1991-05-12 12   19.1   167.1    998         35          
1991-05-12 18   20.0   169.4   1002         35          
Winds are 10-min average.

Tropical cyclone tracks developed by Michael Bath using data from the Bureau of Meteorology and Google Maps.


[Australian Severe Weather index] [Copyright Notice] [Email Contacts] [Search This Site] [Privacy Policy]
Document: tropical_cyclone_lisa.htm Updated: 30 May 2013